createdAt,value
2022-10-26T00:00:23.697Z,76.97
2022-10-26T00:04:26.660Z,77.10
2022-10-26T00:08:31.061Z,76.87
2022-10-26T00:12:34.092Z,76.63
2022-10-26T00:16:37.131Z,76.70
2022-10-26T00:20:40.133Z,76.97
2022-10-26T00:24:44.500Z,77.00
2022-10-26T00:28:48.944Z,76.97
2022-10-26T00:32:52.803Z,76.97
2022-10-26T00:36:55.907Z,76.83
2022-10-26T00:41:00.382Z,76.81
2022-10-26T00:45:08.816Z,76.52
2022-10-26T00:49:16.808Z,76.40
2022-10-26T00:53:20.767Z,76.08
2022-10-26T00:57:25.785Z,76.32
2022-10-26T01:01:29.007Z,76.27
2022-10-26T01:05:32.935Z,76.28
2022-10-26T01:09:37.290Z,76.18
2022-10-26T01:13:45.227Z,76.62
2022-10-26T01:17:57.731Z,76.54
2022-10-26T01:22:04.527Z,76.61
2022-10-26T01:26:33.376Z,76.92
2022-10-26T01:30:41.899Z,76.88
2022-10-26T01:34:48.520Z,77.11
2022-10-26T01:38:59.096Z,76.85
2022-10-26T01:43:08.121Z,76.75
2022-10-26T01:47:15.321Z,76.59
2022-10-26T01:51:19.806Z,77.00
2022-10-26T01:55:44.483Z,77.14
2022-10-26T02:00:05.309Z,77.25
2022-10-26T02:04:20.474Z,77.49
2022-10-26T02:08:37.535Z,77.24
2022-10-26T02:12:46.899Z,77.09
2022-10-26T02:16:56.251Z,76.75
2022-10-26T02:21:06.634Z,77.04
2022-10-26T02:25:15.349Z,76.82
2022-10-26T02:29:20.534Z,77.10
2022-10-26T02:33:25.329Z,76.90
2022-10-26T02:37:33.343Z,77.06
2022-10-26T02:41:37.963Z,77.59
2022-10-26T02:45:45.496Z,77.75
2022-10-26T02:49:48.886Z,78.07
2022-10-26T02:53:57.570Z,78.28
2022-10-26T02:58:03.199Z,78.19
2022-10-26T03:02:06.853Z,78.36
2022-10-26T03:06:09.871Z,78.29
2022-10-26T03:10:14.380Z,77.93
2022-10-26T03:14:17.462Z,77.57
2022-10-26T03:18:20.909Z,77.96
2022-10-26T03:22:24.346Z,77.93
2022-10-26T03:26:28.827Z,78.08
2022-10-26T03:30:32.761Z,78.07
2022-10-26T03:34:35.769Z,78.28
2022-10-26T03:38:38.815Z,78.52
2022-10-26T03:42:43.469Z,78.60
2022-10-26T03:46:46.776Z,79.04
2022-10-26T03:50:49.804Z,79.38
2022-10-26T03:54:53.363Z,79.74
2022-10-26T03:58:57.757Z,79.87
2022-10-26T04:03:01.580Z,79.57
2022-10-26T04:07:04.763Z,79.62
2022-10-26T04:11:08.017Z,79.89
2022-10-26T04:15:12.693Z,80.50
2022-10-26T04:19:15.710Z,80.27
2022-10-26T04:23:20.175Z,80.38
2022-10-26T04:27:23.443Z,80.44
2022-10-26T04:31:27.861Z,80.66
2022-10-26T04:35:31.024Z,80.86
2022-10-26T04:39:34.038Z,80.92
2022-10-26T04:43:37.010Z,82.34
2022-10-26T04:47:42.023Z,81.58
2022-10-26T04:51:44.950Z,81.91
2022-10-26T04:55:47.843Z,81.82
2022-10-26T04:59:50.762Z,82.16
2022-10-26T05:03:55.057Z,82.27
2022-10-26T05:07:58.331Z,82.45
2022-10-26T05:12:01.241Z,82.58
2022-10-26T05:16:04.284Z,82.43
2022-10-26T05:20:13.249Z,82.49
2022-10-26T05:24:16.163Z,82.36
2022-10-26T05:28:19.854Z,82.11
2022-10-26T05:32:22.784Z,82.11
2022-10-26T05:36:27.131Z,82.07
2022-10-26T05:40:30.058Z,82.15
2022-10-26T05:44:33.196Z,82.13
2022-10-26T05:48:36.163Z,82.61
2022-10-26T05:52:45.158Z,82.36
2022-10-26T05:56:48.694Z,82.11
2022-10-26T06:01:03.439Z,82.26
2022-10-26T06:05:07.560Z,82.64
2022-10-26T06:09:13.212Z,82.76
2022-10-26T06:13:17.167Z,82.66
2022-10-26T06:17:36.468Z,82.75
2022-10-26T06:21:54.378Z,83.24
2022-10-26T06:26:07.353Z,82.88
2022-10-26T06:30:12.174Z,83.17
2022-10-26T06:34:24.039Z,83.32
2022-10-26T06:38:31.368Z,83.37
2022-10-26T06:42:36.230Z,84.26
2022-10-26T06:46:44.776Z,84.52
2022-10-26T06:50:52.680Z,84.56
2022-10-26T06:54:56.926Z,84.71
2022-10-26T06:59:09.694Z,85.13
2022-10-26T07:03:12.731Z,84.58
2022-10-26T07:07:19.127Z,84.91
2022-10-26T07:11:22.021Z,85.37
2022-10-26T07:15:26.403Z,85.90
2022-10-26T07:19:29.373Z,86.18
2022-10-26T07:23:32.314Z,86.46
2022-10-26T07:27:35.406Z,86.35
2022-10-26T07:31:39.753Z,86.83
2022-10-26T07:35:43.097Z,87.25
2022-10-26T07:39:45.992Z,87.33
2022-10-26T07:43:50.820Z,87.04
2022-10-26T07:47:55.246Z,86.92
2022-10-26T07:51:58.198Z,87.46
2022-10-26T07:56:01.389Z,87.35
2022-10-26T08:00:07.505Z,87.31
2022-10-26T08:04:12.744Z,87.21
2022-10-26T08:08:15.712Z,87.15
2022-10-26T08:12:18.989Z,87.46
2022-10-26T08:16:22.703Z,88.22
2022-10-26T08:20:27.089Z,88.20
2022-10-26T08:24:30.554Z,87.49
2022-10-26T08:28:33.503Z,87.47
2022-10-26T08:32:36.402Z,87.47
2022-10-26T08:36:40.889Z,87.28
2022-10-26T08:40:44.801Z,87.01
2022-10-26T08:44:50.031Z,87.42
2022-10-26T08:48:56.679Z,87.43
2022-10-26T08:53:05.756Z,87.54
2022-10-26T08:57:17.248Z,87.67
2022-10-26T09:01:20.386Z,87.48
2022-10-26T09:05:29.664Z,87.47
2022-10-26T09:09:49.546Z,87.71
2022-10-26T09:14:04.815Z,87.58
2022-10-26T09:18:23.020Z,87.89
2022-10-26T09:22:37.346Z,87.37
2022-10-26T09:26:54.545Z,87.66
2022-10-26T09:31:00.547Z,87.66
2022-10-26T09:35:07.403Z,87.89
2022-10-26T09:39:16.697Z,87.46
2022-10-26T09:43:25.867Z,87.55
2022-10-26T09:47:34.747Z,87.40
2022-10-26T09:51:40.128Z,87.17
2022-10-26T09:55:46.505Z,87.01
2022-10-26T09:59:52.605Z,87.05
2022-10-26T10:04:11.002Z,87.09
2022-10-26T10:08:19.725Z,87.14
2022-10-26T10:12:22.673Z,87.42
2022-10-26T10:16:27.402Z,87.16
2022-10-26T10:20:33.549Z,87.13
2022-10-26T10:24:38.334Z,86.98
2022-10-26T10:28:42.631Z,86.42
2022-10-26T10:32:46.928Z,86.70
2022-10-26T10:36:51.195Z,86.66
2022-10-26T10:40:57.647Z,86.46
2022-10-26T10:45:01.688Z,86.34
2022-10-26T10:49:08.159Z,86.47
2022-10-26T10:53:16.754Z,86.34
2022-10-26T10:57:31.123Z,86.12
2022-10-26T11:01:40.760Z,86.29
2022-10-26T11:05:58.973Z,86.56
2022-10-26T11:10:04.916Z,86.69
2022-10-26T11:14:14.447Z,86.51
2022-10-26T11:18:23.118Z,86.60
2022-10-26T11:22:31.769Z,86.54
2022-10-26T11:26:43.613Z,86.36
2022-10-26T11:30:56.498Z,85.90
2022-10-26T11:35:05.918Z,85.96
2022-10-26T11:39:17.446Z,86.39
2022-10-26T11:43:30.863Z,85.94
2022-10-26T11:47:41.623Z,86.18
2022-10-26T11:51:50.011Z,85.91
2022-10-26T11:55:56.495Z,85.35
2022-10-26T12:00:02.722Z,85.26
2022-10-26T12:04:08.201Z,85.01
2022-10-26T12:08:17.482Z,84.96
2022-10-26T12:12:30.713Z,84.97
2022-10-26T12:16:47.903Z,84.99
2022-10-26T12:21:02.414Z,85.25
2022-10-26T12:25:19.799Z,85.49
2022-10-26T12:29:38.459Z,85.07
2022-10-26T12:33:51.405Z,85.11
2022-10-26T12:37:54.424Z,84.83
2022-10-26T12:41:59.672Z,84.94
2022-10-26T12:46:41.076Z,84.67
2022-10-26T12:50:45.590Z,84.67
2022-10-26T12:55:04.477Z,84.63
2022-10-26T12:59:23.237Z,84.58
2022-10-26T13:03:35.624Z,84.61
2022-10-26T13:07:41.542Z,84.32
2022-10-26T13:11:48.067Z,84.38
2022-10-26T13:15:55.136Z,84.22
2022-10-26T13:20:00.242Z,84.15
2022-10-26T13:24:07.884Z,84.25
2022-10-26T13:28:32.677Z,84.22
2022-10-26T13:32:38.040Z,84.17
2022-10-26T13:36:46.413Z,84.18
2022-10-26T13:40:51.305Z,84.06
2022-10-26T13:44:57.028Z,83.96
2022-10-26T13:49:06.890Z,84.17
2022-10-26T13:53:17.756Z,83.98
2022-10-26T13:57:29.093Z,84.01
2022-10-26T14:01:32.745Z,83.69
2022-10-26T14:05:36.069Z,84.00
2022-10-26T14:09:38.974Z,83.96
2022-10-26T14:13:44.158Z,83.80
2022-10-26T14:17:52.096Z,83.86
2022-10-26T14:21:56.607Z,83.85
2022-10-26T14:25:59.844Z,84.20
2022-10-26T14:30:23.616Z,83.97
2022-10-26T14:34:26.712Z,83.75
2022-10-26T14:38:34.562Z,83.85
2022-10-26T14:42:41.485Z,84.11
2022-10-26T14:46:46.494Z,84.27
2022-10-26T14:50:59.761Z,84.18
2022-10-26T14:55:05.776Z,84.23
2022-10-26T14:59:14.077Z,84.28
2022-10-26T15:03:19.321Z,84.36
2022-10-26T15:07:22.215Z,84.02
2022-10-26T15:11:25.914Z,84.32
2022-10-26T15:15:28.857Z,84.45
2022-10-26T15:19:34.124Z,84.29
2022-10-26T15:23:43.298Z,84.22
2022-10-26T15:27:46.598Z,84.40
2022-10-26T15:32:01.319Z,84.81
2022-10-26T15:36:15.539Z,85.22
2022-10-26T15:40:19.543Z,85.44
2022-10-26T15:44:23.379Z,85.36
2022-10-26T15:48:29.205Z,85.38
2022-10-26T15:52:33.778Z,85.64
2022-10-26T15:56:37.482Z,85.86
2022-10-26T16:00:40.420Z,86.00
2022-10-26T16:04:43.425Z,85.70
2022-10-26T16:08:52.510Z,85.52
2022-10-26T16:12:55.924Z,86.84
2022-10-26T16:16:58.885Z,86.55
2022-10-26T16:21:01.880Z,86.58
2022-10-26T16:25:07.159Z,86.31
2022-10-26T16:29:10.195Z,86.20
2022-10-26T16:33:13.230Z,86.16
2022-10-26T16:37:16.245Z,85.84
2022-10-26T16:41:20.802Z,86.08
2022-10-26T16:45:24.325Z,86.07
2022-10-26T16:49:27.357Z,86.18
2022-10-26T16:53:30.330Z,86.20
2022-10-26T16:57:36.112Z,86.06
2022-10-26T17:01:39.241Z,86.21
2022-10-26T17:05:42.324Z,86.56
2022-10-26T17:09:45.602Z,86.52
2022-10-26T17:13:54.646Z,86.61
2022-10-26T17:17:57.804Z,86.24
2022-10-26T17:22:03.729Z,86.50
2022-10-26T17:26:11.967Z,86.66
2022-10-26T17:30:17.000Z,87.04
2022-10-26T17:34:20.260Z,86.91
2022-10-26T17:38:23.334Z,87.11
2022-10-26T17:42:26.343Z,87.26
2022-10-26T17:46:30.838Z,87.07
2022-10-26T17:50:33.856Z,87.23
2022-10-26T17:54:36.876Z,87.08
2022-10-26T17:58:40.150Z,87.17
2022-10-26T18:02:44.654Z,87.46
2022-10-26T18:06:47.797Z,87.49
2022-10-26T18:10:51.748Z,87.76
2022-10-26T18:14:54.759Z,87.67
2022-10-26T18:19:01.060Z,87.83
2022-10-26T18:23:05.376Z,87.98
2022-10-26T18:27:08.600Z,87.71
2022-10-26T18:31:13.540Z,87.76
2022-10-26T18:35:19.513Z,87.74
2022-10-26T18:39:22.581Z,87.75
2022-10-26T18:43:25.641Z,87.68
2022-10-26T18:47:30.023Z,87.87
2022-10-26T18:51:35.903Z,87.99
2022-10-26T18:55:39.276Z,88.01
2022-10-26T18:59:42.363Z,87.90
2022-10-26T19:03:46.275Z,88.30
2022-10-26T19:07:50.991Z,87.94
2022-10-26T19:11:54.023Z,88.12
2022-10-26T19:16:05.210Z,88.47
2022-10-26T19:20:12.837Z,88.40
2022-10-26T19:24:18.853Z,88.54
2022-10-26T19:28:21.934Z,88.38
2022-10-26T19:32:28.062Z,88.10
2022-10-26T19:36:31.797Z,88.29
2022-10-26T19:40:36.380Z,88.40
2022-10-26T19:44:39.827Z,88.42
2022-10-26T19:48:48.681Z,88.53
2022-10-26T19:52:52.111Z,88.31
2022-10-26T19:56:56.858Z,88.56
2022-10-26T20:01:01.336Z,88.52
2022-10-26T20:05:04.701Z,88.72
2022-10-26T20:09:07.832Z,88.28
2022-10-26T20:13:14.733Z,88.44
2022-10-26T20:17:18.145Z,88.88
2022-10-26T20:21:21.485Z,88.82
2022-10-26T20:25:24.886Z,88.81
2022-10-26T20:29:29.915Z,88.79
2022-10-26T20:33:32.952Z,88.78
2022-10-26T20:37:36.602Z,88.68
2022-10-26T20:41:43.392Z,88.64
2022-10-26T20:45:48.610Z,88.76
2022-10-26T20:49:52.579Z,88.81
2022-10-26T20:54:05.009Z,88.83
2022-10-26T20:58:13.569Z,88.61
2022-10-26T21:02:18.028Z,88.88
2022-10-26T21:06:21.147Z,88.54
2022-10-26T21:10:24.238Z,88.55
2022-10-26T21:14:28.182Z,88.45
2022-10-26T21:18:32.646Z,88.48
2022-10-26T21:22:44.421Z,88.06
2022-10-26T21:26:47.415Z,88.30
2022-10-26T21:30:50.681Z,88.42
2022-10-26T21:34:55.251Z,88.49
2022-10-26T21:38:58.418Z,88.50
2022-10-26T21:43:01.698Z,88.20
2022-10-26T21:47:05.203Z,88.22
2022-10-26T21:51:12.435Z,88.48
2022-10-26T21:55:15.494Z,88.32
2022-10-26T21:59:18.490Z,88.35
2022-10-26T22:03:21.584Z,88.10
2022-10-26T22:07:26.200Z,88.44
2022-10-26T22:11:29.252Z,88.22
2022-10-26T22:15:32.243Z,88.16
2022-10-26T22:19:35.299Z,87.94
2022-10-26T22:23:41.840Z,87.66
2022-10-26T22:27:45.075Z,87.62
2022-10-26T22:31:48.240Z,87.49
2022-10-26T22:35:51.230Z,87.50
2022-10-26T22:39:55.671Z,87.25
2022-10-26T22:43:58.695Z,87.22
2022-10-26T22:48:01.738Z,86.86
2022-10-26T22:52:04.940Z,87.09
2022-10-26T22:56:11.811Z,87.00
2022-10-26T23:00:16.073Z,87.34
2022-10-26T23:04:19.085Z,87.21
2022-10-26T23:08:22.096Z,87.15
2022-10-26T23:12:26.648Z,87.31
2022-10-26T23:16:30.819Z,87.15
2022-10-26T23:20:34.567Z,87.57
2022-10-26T23:24:37.593Z,87.53
2022-10-26T23:28:43.288Z,87.69
2022-10-26T23:32:46.494Z,87.54
2022-10-26T23:36:50.596Z,87.43
2022-10-26T23:40:55.483Z,87.50
2022-10-26T23:44:59.949Z,87.50
2022-10-26T23:49:03.208Z,87.64
2022-10-26T23:53:06.199Z,87.71
2022-10-26T23:57:09.160Z,87.50
